createdAt,value
2023-01-22T00:01:48.305Z,98391.56
2023-01-22T00:04:17.503Z,98394.94
2023-01-22T00:06:46.605Z,98391.00
2023-01-22T00:09:15.825Z,98396.44
2023-01-22T00:11:46.262Z,98406.94
2023-01-22T00:14:15.359Z,98406.00
2023-01-22T00:16:45.234Z,98413.84
2023-01-22T00:19:14.336Z,98410.59
2023-01-22T00:21:43.581Z,98421.53
2023-01-22T00:24:13.292Z,98419.78
2023-01-22T00:26:42.596Z,98410.22
2023-01-22T00:29:13.694Z,98417.97
2023-01-22T00:31:44.336Z,98418.63
2023-01-22T00:34:13.718Z,98415.06
2023-01-22T00:36:43.123Z,98413.13
2023-01-22T00:39:12.493Z,98423.50
2023-01-22T00:41:42.737Z,98414.84
2023-01-22T00:44:13.462Z,98418.88
2023-01-22T00:46:51.365Z,98422.91
2023-01-22T00:49:20.485Z,98420.72
2023-01-22T00:51:49.649Z,98423.25
2023-01-22T00:54:18.852Z,98423.25
2023-01-22T00:56:47.917Z,98428.44
2023-01-22T00:59:19.401Z,98426.59
2023-01-22T01:01:48.766Z,98430.16
2023-01-22T01:04:18.763Z,98432.25
2023-01-22T01:06:49.945Z,98439.84
2023-01-22T01:09:19.164Z,98434.31
2023-01-22T01:11:48.278Z,98442.06
2023-01-22T01:14:18.709Z,98436.53
2023-01-22T01:16:47.857Z,98436.53
2023-01-22T01:19:17.757Z,98436.88
2023-01-22T01:21:47.671Z,98431.69
2023-01-22T01:24:16.742Z,98431.56
2023-01-22T01:26:45.845Z,98425.25
2023-01-22T01:29:16.087Z,98431.69
2023-01-22T01:31:46.598Z,98430.88
2023-01-22T01:34:16.701Z,98439.41
2023-01-22T01:36:49.139Z,98441.00
2023-01-22T01:39:18.769Z,98444.81
2023-01-22T01:41:50.418Z,98441.47
2023-01-22T01:44:21.866Z,98441.94
2023-01-22T01:46:56.601Z,98444.69
2023-01-22T01:49:33.318Z,98449.75
2023-01-22T01:52:05.708Z,98452.97
2023-01-22T01:54:35.145Z,98455.75
2023-01-22T01:57:11.217Z,98449.53
2023-01-22T01:59:40.710Z,98442.16
2023-01-22T02:02:11.413Z,98448.16
2023-01-22T02:04:40.828Z,98442.38
2023-01-22T02:07:10.023Z,98437.56
2023-01-22T02:09:39.231Z,98436.63
2023-01-22T02:12:09.104Z,98426.94
2023-01-22T02:14:42.586Z,98439.84
2023-01-22T02:17:17.199Z,98443.91
2023-01-22T02:19:47.418Z,98437.31
2023-01-22T02:22:23.203Z,98443.56
2023-01-22T02:24:53.179Z,98439.53
2023-01-22T02:27:22.353Z,98443.00
2023-01-22T02:29:53.036Z,98435.97
2023-01-22T02:32:22.343Z,98439.28
2023-01-22T02:34:51.660Z,98431.22
2023-01-22T02:37:22.495Z,98429.50
2023-01-22T02:39:51.635Z,98437.09
2023-01-22T02:42:21.026Z,98451.06
2023-01-22T02:44:52.961Z,98456.69
2023-01-22T02:47:22.258Z,98446.09
2023-01-22T02:49:51.390Z,98436.88
2023-01-22T02:52:22.085Z,98431.56
2023-01-22T02:54:51.209Z,98426.38
2023-01-22T02:57:20.463Z,98421.91
2023-01-22T02:59:49.696Z,98428.22
2023-01-22T03:02:18.919Z,98448.63
2023-01-22T03:04:50.273Z,98435.50
2023-01-22T03:07:21.302Z,98431.34
2023-01-22T03:09:51.027Z,98425.59
2023-01-22T03:12:20.133Z,98444.94
2023-01-22T03:15:06.667Z,98434.69
2023-01-22T03:17:53.383Z,98439.88
2023-01-22T03:20:40.508Z,98442.16
2023-01-22T03:23:10.941Z,98448.63
2023-01-22T03:25:40.061Z,98448.38
2023-01-22T03:28:16.595Z,98450.44
2023-01-22T03:30:50.611Z,98452.78
2023-01-22T03:33:19.801Z,98453.22
2023-01-22T03:35:51.529Z,98453.66
2023-01-22T03:38:24.305Z,98455.53
2023-01-22T03:40:54.587Z,98455.97
2023-01-22T03:43:24.861Z,98461.50
2023-01-22T03:45:54.296Z,98464.03
2023-01-22T03:48:24.932Z,98460.81
2023-01-22T03:50:54.043Z,98460.59
2023-01-22T03:53:24.568Z,98465.78
2023-01-22T03:56:01.734Z,98466.25
2023-01-22T03:58:34.152Z,98470.97
2023-01-22T04:01:06.590Z,98466.16
2023-01-22T04:03:38.055Z,98467.75
2023-01-22T04:06:09.717Z,98475.81
2023-01-22T04:08:48.402Z,98477.19
2023-01-22T04:11:18.710Z,98470.75
2023-01-22T04:13:48.791Z,98479.97
2023-01-22T04:16:21.229Z,98479.28
2023-01-22T04:19:22.435Z,98478.13
2023-01-22T04:21:58.774Z,98479.97
2023-01-22T04:24:29.435Z,98491.16
2023-01-22T04:26:58.543Z,98490.09
2023-01-22T04:29:27.845Z,98490.78
2023-01-22T04:31:57.196Z,98483.63
2023-01-22T04:34:47.537Z,98479.97
2023-01-22T04:37:34.539Z,98488.25
2023-01-22T04:40:05.862Z,98476.41
2023-01-22T04:42:38.314Z,98477.22
2023-01-22T04:45:09.517Z,98487.34
2023-01-22T04:47:42.580Z,98478.34
2023-01-22T04:50:18.732Z,98479.00
2023-01-22T04:52:49.146Z,98473.00
2023-01-22T04:55:19.800Z,98485.91
2023-01-22T04:57:58.229Z,98487.50
2023-01-22T05:00:29.783Z,98493.50
2023-01-22T05:03:02.453Z,98490.41
2023-01-22T05:05:33.913Z,98487.97
2023-01-22T05:08:03.109Z,98500.91
2023-01-22T05:10:34.924Z,98493.03
2023-01-22T05:13:07.567Z,98494.22
2023-01-22T05:15:40.961Z,98505.72
2023-01-22T05:18:12.873Z,98495.13
2023-01-22T05:20:49.018Z,98495.59
2023-01-22T05:23:20.126Z,98488.44
2023-01-22T05:25:51.693Z,98497.69
2023-01-22T05:28:27.517Z,98491.00
2023-01-22T05:31:11.309Z,98487.09
2023-01-22T05:34:00.658Z,98497.00
2023-01-22T05:36:31.412Z,98498.94
2023-01-22T05:39:10.156Z,98495.59
2023-01-22T05:41:40.711Z,98496.53
2023-01-22T05:44:13.807Z,98504.13
2023-01-22T05:46:51.155Z,98510.47
2023-01-22T05:49:22.949Z,98506.91
2023-01-22T05:51:55.809Z,98512.44
2023-01-22T05:54:24.935Z,98512.44
2023-01-22T05:56:56.280Z,98506.22
2023-01-22T05:59:28.162Z,98508.53
2023-01-22T06:02:02.038Z,98509.19
2023-01-22T06:04:31.569Z,98517.50
2023-01-22T06:07:05.003Z,98513.78
2023-01-22T06:09:34.133Z,98514.59
2023-01-22T06:12:05.186Z,98519.31
2023-01-22T06:14:34.817Z,98512.19
2023-01-22T06:17:05.022Z,98512.84
2023-01-22T06:19:39.507Z,98518.50
2023-01-22T06:22:09.640Z,98518.84
2023-01-22T06:24:51.386Z,98522.75
2023-01-22T06:27:25.764Z,98513.66
2023-01-22T06:29:58.804Z,98518.38
2023-01-22T06:32:31.270Z,98523.00
2023-01-22T06:35:02.100Z,98520.25
2023-01-22T06:37:32.189Z,98516.53
2023-01-22T06:40:01.356Z,98516.69
2023-01-22T06:42:45.154Z,98514.94
2023-01-22T06:45:15.256Z,98526.66
2023-01-22T06:47:49.125Z,98523.16
2023-01-22T06:50:18.869Z,98528.50
2023-01-22T06:52:48.157Z,98530.84
2023-01-22T06:55:18.376Z,98524.38
2023-01-22T06:57:49.282Z,98529.69
2023-01-22T07:00:22.716Z,98537.97
2023-01-22T07:02:51.887Z,98534.75
2023-01-22T07:05:21.392Z,98531.06
2023-01-22T07:07:55.258Z,98529.44
2023-01-22T07:10:24.375Z,98537.25
2023-01-22T07:13:00.007Z,98542.78
2023-01-22T07:15:29.119Z,98543.50
2023-01-22T07:17:58.188Z,98546.03
2023-01-22T07:20:27.265Z,98548.78
2023-01-22T07:23:00.379Z,98541.97
2023-01-22T07:25:30.066Z,98538.47
2023-01-22T07:28:02.779Z,98543.56
2023-01-22T07:30:32.065Z,98547.47
2023-01-22T07:33:02.549Z,98548.97
2023-01-22T07:35:32.365Z,98550.00
2023-01-22T07:38:02.089Z,98548.38
2023-01-22T07:40:31.241Z,98550.13
2023-01-22T07:43:06.257Z,98550.69
2023-01-22T07:45:36.525Z,98553.69
2023-01-22T07:48:07.789Z,98558.53
2023-01-22T07:50:37.120Z,98558.53
2023-01-22T07:53:06.223Z,98556.91
2023-01-22T07:55:35.444Z,98565.69
2023-01-22T07:58:08.042Z,98573.72
2023-01-22T08:00:38.050Z,98587.56
2023-01-22T08:03:10.494Z,98586.53
2023-01-22T08:05:41.364Z,98589.44
2023-01-22T08:08:15.650Z,98594.97
2023-01-22T08:10:45.628Z,98592.19
2023-01-22T08:13:16.321Z,98603.59
2023-01-22T08:15:46.108Z,98609.59
2023-01-22T08:18:16.128Z,98605.34
2023-01-22T08:20:46.681Z,98611.81
2023-01-22T08:23:16.018Z,98611.84
2023-01-22T08:25:45.245Z,98608.63
2023-01-22T08:28:15.861Z,98618.91
2023-01-22T08:30:46.670Z,98618.31
2023-01-22T08:33:16.717Z,98621.78
2023-01-22T08:35:47.253Z,98625.59
2023-01-22T08:38:16.787Z,98615.75
2023-01-22T08:40:50.054Z,98632.25
2023-01-22T08:43:21.200Z,98634.00
2023-01-22T08:45:51.457Z,98633.31
2023-01-22T08:48:20.844Z,98645.75
2023-01-22T08:50:49.901Z,98643.09
2023-01-22T08:53:19.108Z,98659.13
2023-01-22T08:55:51.704Z,98653.59
2023-01-22T08:58:22.387Z,98654.53
2023-01-22T09:00:51.857Z,98658.88
2023-01-22T09:03:21.188Z,98662.09
2023-01-22T09:05:51.021Z,98663.50
2023-01-22T09:08:20.459Z,98662.44
2023-01-22T09:10:49.684Z,98668.78
2023-01-22T09:13:18.898Z,98670.41
2023-01-22T09:15:49.778Z,98681.50
2023-01-22T09:18:18.919Z,98671.31
2023-01-22T09:20:48.169Z,98676.84
2023-01-22T09:23:17.592Z,98681.69
2023-01-22T09:25:46.738Z,98678.00
2023-01-22T09:28:15.850Z,98679.72
2023-01-22T09:30:44.956Z,98683.25
2023-01-22T09:33:15.559Z,98681.09
2023-01-22T09:35:46.359Z,98682.13
2023-01-22T09:38:16.164Z,98685.66
2023-01-22T09:40:49.898Z,98690.44
2023-01-22T09:43:32.719Z,98685.59
2023-01-22T09:46:07.371Z,98694.75
2023-01-22T09:48:42.599Z,98702.19
2023-01-22T09:51:13.964Z,98702.19
2023-01-22T09:53:44.983Z,98704.50
2023-01-22T09:56:24.634Z,98700.56
2023-01-22T09:58:56.380Z,98705.97
2023-01-22T10:01:28.661Z,98719.13
2023-01-22T10:04:05.044Z,98720.19
2023-01-22T10:06:34.792Z,98711.50
2023-01-22T10:09:15.786Z,98718.31
2023-01-22T10:11:51.602Z,98709.00
2023-01-22T10:14:23.858Z,98710.16
2023-01-22T10:16:57.170Z,98718.38
2023-01-22T10:19:34.197Z,98723.31
2023-01-22T10:22:13.142Z,98714.69
2023-01-22T10:24:45.153Z,98718.16
2023-01-22T10:27:19.537Z,98722.75
2023-01-22T10:30:01.245Z,98718.78
2023-01-22T10:32:32.825Z,98717.34
2023-01-22T10:35:07.560Z,98722.16
2023-01-22T10:37:48.237Z,98720.66
2023-01-22T10:40:27.456Z,98731.81
2023-01-22T10:43:08.028Z,98731.19
2023-01-22T10:45:40.962Z,98730.91
2023-01-22T10:48:18.525Z,98725.63
2023-01-22T10:51:09.598Z,98729.75
2023-01-22T10:53:45.322Z,98727.84
2023-01-22T10:56:27.620Z,98735.34
2023-01-22T10:59:01.367Z,98739.16
2023-01-22T11:01:35.047Z,98732.28
2023-01-22T11:04:14.514Z,98737.47
2023-01-22T11:06:49.816Z,98742.53
2023-01-22T11:09:24.076Z,98741.72
2023-01-22T11:12:02.076Z,98736.66
2023-01-22T11:14:35.948Z,98742.06
2023-01-22T11:17:15.074Z,98734.03
2023-01-22T11:19:53.028Z,98731.94
2023-01-22T11:22:39.585Z,98739.75
2023-01-22T11:25:11.879Z,98742.19
2023-01-22T11:28:03.900Z,98734.66
2023-01-22T11:31:04.863Z,98737.56
2023-01-22T11:34:02.870Z,98729.84
2023-01-22T11:36:38.439Z,98724.88
2023-01-22T11:39:19.694Z,98725.31
2023-01-22T11:42:03.973Z,98735.81
2023-01-22T11:44:58.361Z,98732.06
2023-01-22T11:47:54.826Z,98728.81
2023-01-22T11:50:29.480Z,98724.69
2023-01-22T11:53:41.381Z,98723.00
2023-01-22T11:56:31.240Z,98720.88
2023-01-22T11:59:08.744Z,98723.84
2023-01-22T12:02:03.826Z,98725.00
2023-01-22T12:05:09.181Z,98719.94
2023-01-22T12:08:18.783Z,98728.31
2023-01-22T12:11:06.899Z,98719.72
2023-01-22T12:14:00.086Z,98723.56
2023-01-22T12:16:38.349Z,98733.59
2023-01-22T12:19:30.799Z,98733.44
2023-01-22T12:22:08.735Z,98723.53
2023-01-22T12:24:45.656Z,98725.69
2023-01-22T12:27:25.819Z,98723.75
2023-01-22T12:30:06.643Z,98722.03
2023-01-22T12:32:48.896Z,98733.44
2023-01-22T12:35:24.198Z,98737.09
2023-01-22T12:38:03.377Z,98732.16
2023-01-22T12:41:22.393Z,98738.53
2023-01-22T12:43:56.520Z,98740.72
2023-01-22T12:46:43.100Z,98742.91
2023-01-22T12:49:16.806Z,98750.00
2023-01-22T12:51:48.257Z,98748.69
2023-01-22T12:54:24.013Z,98751.19
2023-01-22T12:56:56.596Z,98758.69
2023-01-22T12:59:42.785Z,98752.16
2023-01-22T13:02:39.075Z,98757.56
2023-01-22T13:05:21.076Z,98755.19
2023-01-22T13:08:04.111Z,98759.97
2023-01-22T13:10:36.150Z,98765.19
2023-01-22T13:13:26.755Z,98770.69
2023-01-22T13:16:01.017Z,98767.28
2023-01-22T13:18:36.752Z,98775.47
2023-01-22T13:21:09.126Z,98771.75
2023-01-22T13:23:44.828Z,98770.56
2023-01-22T13:26:20.658Z,98762.78
2023-01-22T13:28:53.454Z,98761.44
2023-01-22T13:31:23.011Z,98768.53
2023-01-22T13:33:59.324Z,98771.25
2023-01-22T13:36:29.800Z,98781.84
2023-01-22T13:39:00.891Z,98773.31
2023-01-22T13:41:35.693Z,98785.63
2023-01-22T13:44:06.502Z,98792.25
2023-01-22T13:46:42.443Z,98786.09
2023-01-22T13:49:22.729Z,98791.56
2023-01-22T13:51:52.337Z,98792.28
2023-01-22T13:54:28.092Z,98788.31
2023-01-22T13:56:57.467Z,98786.91
2023-01-22T13:59:35.710Z,98794.78
2023-01-22T14:02:21.902Z,98786.97
2023-01-22T14:04:57.050Z,98793.25
2023-01-22T14:07:29.023Z,98801.44
2023-01-22T14:10:00.343Z,98802.41
2023-01-22T14:12:30.403Z,98811.28
2023-01-22T14:14:59.600Z,98811.09
2023-01-22T14:17:34.103Z,98810.88
2023-01-22T14:20:05.699Z,98812.59
2023-01-22T14:22:35.011Z,98833.44
2023-01-22T14:25:04.721Z,98827.94
2023-01-22T14:27:42.549Z,98840.00
2023-01-22T14:30:15.445Z,98849.97
2023-01-22T14:32:46.366Z,98856.84
2023-01-22T14:35:20.497Z,98862.97
2023-01-22T14:37:49.866Z,98872.25
2023-01-22T14:40:20.387Z,98879.56
2023-01-22T14:42:50.281Z,98883.81
2023-01-22T14:45:21.149Z,98884.44
2023-01-22T14:47:52.416Z,98876.69
2023-01-22T14:50:23.942Z,98877.94
2023-01-22T14:52:53.256Z,98874.38
2023-01-22T14:55:22.733Z,98861.75
2023-01-22T14:57:52.393Z,98865.44
2023-01-22T15:00:22.071Z,98873.19
2023-01-22T15:02:57.361Z,98872.25
2023-01-22T15:05:28.341Z,98879.16
2023-01-22T15:07:58.876Z,98867.72
2023-01-22T15:10:28.275Z,98867.13
2023-01-22T15:12:57.713Z,98865.50
2023-01-22T15:15:28.764Z,98874.75
2023-01-22T15:18:00.848Z,98882.84
2023-01-22T15:20:31.892Z,98888.19
2023-01-22T15:23:01.065Z,98878.81
2023-01-22T15:25:32.270Z,98877.56
2023-01-22T15:28:02.972Z,98885.69
2023-01-22T15:30:32.186Z,98874.53
2023-01-22T15:33:01.399Z,98879.56
2023-01-22T15:35:32.442Z,98880.03
2023-01-22T15:38:05.304Z,98883.94
2023-01-22T15:40:36.987Z,98890.41
2023-01-22T15:43:06.669Z,98889.59
2023-01-22T15:45:35.963Z,98903.78
2023-01-22T15:48:05.262Z,98897.31
2023-01-22T15:50:36.329Z,98905.16
2023-01-22T15:53:05.430Z,98901.91
2023-01-22T15:55:34.539Z,98897.84
2023-01-22T15:58:03.774Z,98907.88
2023-01-22T16:00:33.795Z,98903.81
2023-01-22T16:03:03.162Z,98911.31
2023-01-22T16:05:32.365Z,98911.31
2023-01-22T16:08:03.458Z,98912.47
2023-01-22T16:10:32.705Z,98913.41
2023-01-22T16:13:01.806Z,98917.34
2023-01-22T16:15:33.682Z,98921.94
2023-01-22T16:18:02.813Z,98924.91
2023-01-22T16:20:31.981Z,98923.03
2023-01-22T16:23:02.557Z,98922.28
2023-01-22T16:25:31.670Z,98925.22
2023-01-22T16:28:00.903Z,98922.94
2023-01-22T16:30:30.097Z,98920.19
2023-01-22T16:32:59.444Z,98930.75
2023-01-22T16:35:28.585Z,98928.34
2023-01-22T16:37:57.893Z,98936.09
2023-01-22T16:40:28.439Z,98950.44
2023-01-22T16:43:01.453Z,98954.47
2023-01-22T16:45:30.748Z,98950.56
2023-01-22T16:47:59.881Z,98948.38
2023-01-22T16:50:29.010Z,98953.25
2023-01-22T16:52:58.272Z,98971.22
2023-01-22T16:55:28.884Z,98964.75
2023-01-22T16:58:00.189Z,98975.13
2023-01-22T17:00:29.331Z,98975.13
2023-01-22T17:03:00.021Z,98967.97
2023-01-22T17:05:29.188Z,98974.19
2023-01-22T17:07:58.533Z,98976.81
2023-01-22T17:10:29.151Z,98982.81
2023-01-22T17:12:58.841Z,98972.56
2023-01-22T17:15:27.999Z,98975.81
2023-01-22T17:17:57.236Z,98988.03
2023-01-22T17:20:26.423Z,98984.13
2023-01-22T17:22:55.607Z,98999.56
2023-01-22T17:25:24.867Z,99007.22
2023-01-22T17:27:55.502Z,99017.47
2023-01-22T17:30:25.111Z,99023.06
2023-01-22T17:32:54.258Z,99034.78
2023-01-22T17:35:23.742Z,99036.13
2023-01-22T17:37:52.924Z,99040.03
2023-01-22T17:40:22.619Z,99041.47
2023-01-22T17:42:51.958Z,99044.41
2023-01-22T17:45:22.483Z,99046.91
2023-01-22T17:47:51.589Z,99043.66
2023-01-22T17:50:20.858Z,99045.28
2023-01-22T17:52:50.064Z,99038.78
2023-01-22T17:55:19.396Z,99028.22
2023-01-22T17:57:48.774Z,99025.03
2023-01-22T18:00:19.825Z,99027.28
2023-01-22T18:02:50.559Z,99040.50
2023-01-22T18:05:20.134Z,99048.00
2023-01-22T18:07:49.626Z,99060.03
2023-01-22T18:10:20.541Z,99060.16
2023-01-22T18:12:49.701Z,99063.13
2023-01-22T18:15:21.991Z,99061.97
2023-01-22T18:17:53.558Z,99055.16
2023-01-22T18:20:22.918Z,99060.69
2023-01-22T18:22:52.756Z,99067.03
2023-01-22T18:25:22.464Z,99062.78
2023-01-22T18:27:51.560Z,99066.22
2023-01-22T18:30:20.821Z,99064.47
2023-01-22T18:32:50.469Z,99042.56
2023-01-22T18:35:21.346Z,99060.94
2023-01-22T18:37:52.162Z,99072.97
2023-01-22T18:40:24.035Z,99077.84
2023-01-22T18:42:53.385Z,99078.44
2023-01-22T18:45:22.921Z,99075.97
2023-01-22T18:47:52.665Z,99081.00
2023-01-22T18:50:23.738Z,99080.09
2023-01-22T18:52:53.158Z,99077.06
2023-01-22T18:55:23.244Z,99075.13
2023-01-22T18:57:57.034Z,99073.81
2023-01-22T19:00:26.367Z,99070.09
2023-01-22T19:02:56.843Z,99071.75
2023-01-22T19:05:31.133Z,99067.69
2023-01-22T19:08:00.236Z,99076.31
2023-01-22T19:10:29.696Z,99085.91
2023-01-22T19:12:59.154Z,99093.41
2023-01-22T19:15:28.462Z,99105.78
2023-01-22T19:18:02.104Z,99116.56
2023-01-22T19:20:36.711Z,99132.47
2023-01-22T19:23:06.706Z,99121.13
2023-01-22T19:25:36.023Z,99122.59
2023-01-22T19:28:05.471Z,99112.53
2023-01-22T19:30:34.778Z,99096.41
2023-01-22T19:33:07.142Z,99073.16
2023-01-22T19:35:37.732Z,99073.31
2023-01-22T19:38:07.692Z,99061.34
2023-01-22T19:40:37.068Z,99061.50
2023-01-22T19:43:09.438Z,99057.16
2023-01-22T19:45:39.694Z,99054.25
2023-01-22T19:48:08.837Z,99061.03
2023-01-22T19:50:41.371Z,99067.13
2023-01-22T19:53:10.870Z,99070.19
2023-01-22T19:55:40.234Z,99077.84
2023-01-22T19:58:10.834Z,99095.59
2023-01-22T20:00:40.374Z,99100.97
2023-01-22T20:03:10.959Z,99094.31
2023-01-22T20:05:42.218Z,99098.22
2023-01-22T20:08:12.149Z,99094.31
2023-01-22T20:10:42.093Z,99101.13
2023-01-22T20:13:13.279Z,99086.03
2023-01-22T20:15:44.465Z,99092.50
2023-01-22T20:18:13.794Z,99080.63
2023-01-22T20:20:52.611Z,99078.72
2023-01-22T20:23:22.332Z,99100.31
2023-01-22T20:25:51.819Z,99104.38
2023-01-22T20:28:24.206Z,99122.41
2023-01-22T20:31:07.790Z,99124.53
2023-01-22T20:33:38.740Z,99137.22
2023-01-22T20:36:15.409Z,99147.13
2023-01-22T20:38:46.553Z,99140.13
2023-01-22T20:41:18.055Z,99144.38
2023-01-22T20:43:47.680Z,99152.16
2023-01-22T20:46:20.629Z,99153.16
2023-01-22T20:48:50.880Z,99153.97
2023-01-22T20:51:24.643Z,99145.84
2023-01-22T20:53:58.260Z,99150.53
2023-01-22T20:56:31.598Z,99153.97
2023-01-22T20:59:04.243Z,99162.75
2023-01-22T21:01:33.915Z,99154.94
2023-01-22T21:04:03.760Z,99160.78
2023-01-22T21:06:39.877Z,99162.22
2023-01-22T21:09:11.860Z,99179.31
2023-01-22T21:11:42.843Z,99171.81
2023-01-22T21:14:17.907Z,99170.34
2023-01-22T21:16:47.326Z,99175.41
2023-01-22T21:19:21.131Z,99171.97
2023-01-22T21:21:52.846Z,99174.91
2023-01-22T21:24:22.141Z,99173.44
2023-01-22T21:26:52.248Z,99172.78
2023-01-22T21:29:23.577Z,99166.44
2023-01-22T21:31:54.617Z,99177.19
2023-01-22T21:34:25.995Z,99168.41
2023-01-22T21:36:58.848Z,99169.88
2023-01-22T21:39:30.319Z,99166.28
2023-01-22T21:42:13.559Z,99169.38
2023-01-22T21:45:00.543Z,99169.88
2023-01-22T21:47:30.668Z,99178.00
2023-01-22T21:50:00.135Z,99180.94
2023-01-22T21:52:30.762Z,99192.47
2023-01-22T21:55:00.341Z,99200.78
2023-01-22T21:57:29.490Z,99199.47
2023-01-22T21:59:58.705Z,99205.16
2023-01-22T22:02:27.828Z,99206.63
2023-01-22T22:04:57.254Z,99215.59
2023-01-22T22:07:26.529Z,99214.28
2023-01-22T22:09:58.706Z,99206.66
2023-01-22T22:12:31.512Z,99208.13
2023-01-22T22:15:00.687Z,99206.81
2023-01-22T22:17:29.773Z,99201.31
2023-01-22T22:19:58.925Z,99202.75
2023-01-22T22:22:28.034Z,99207.13
2023-01-22T22:24:58.820Z,99195.94
2023-01-22T22:27:27.993Z,99190.72
2023-01-22T22:29:57.230Z,99188.13
2023-01-22T22:32:26.460Z,99180.81
2023-01-22T22:34:55.713Z,99183.41
2023-01-22T22:37:26.038Z,99170.88
2023-01-22T22:39:57.513Z,99180.31
2023-01-22T22:42:28.762Z,99172.97
2023-01-22T22:44:57.979Z,99181.97
2023-01-22T22:47:27.010Z,99193.81
2023-01-22T22:49:56.425Z,99192.81
2023-01-22T22:52:25.689Z,99190.22
2023-01-22T22:54:54.840Z,99199.00
2023-01-22T22:57:23.987Z,99195.91
2023-01-22T22:59:54.496Z,99202.41
2023-01-22T23:02:23.881Z,99200.44
2023-01-22T23:04:53.073Z,99201.59
2023-01-22T23:07:22.191Z,99211.84
2023-01-22T23:09:51.275Z,99207.28
2023-01-22T23:12:20.467Z,99203.03
2023-01-22T23:14:49.592Z,99199.28
2023-01-22T23:17:20.069Z,99195.06
2023-01-22T23:19:49.326Z,99197.97
2023-01-22T23:22:18.378Z,99204.97
2023-01-22T23:24:47.540Z,99197.81
2023-01-22T23:27:16.692Z,99203.34
2023-01-22T23:29:45.767Z,99202.25
2023-01-22T23:32:15.040Z,99196.41
2023-01-22T23:34:45.534Z,99203.22
2023-01-22T23:37:14.750Z,99206.44
2023-01-22T23:39:45.375Z,99202.97
2023-01-22T23:42:14.390Z,99201.03
2023-01-22T23:44:43.664Z,99200.69
2023-01-22T23:47:12.708Z,99206.66
2023-01-22T23:49:41.951Z,99204.06
2023-01-22T23:52:12.433Z,99200.56
2023-01-22T23:54:41.575Z,99195.28
2023-01-22T23:57:10.824Z,99190.91
2023-01-22T23:59:39.945Z,99184.75
